createdAt,value
2023-12-20T00:02:03.704Z,0.53
2023-12-20T00:04:30.881Z,0.47
2023-12-20T00:06:58.077Z,0.50
2023-12-20T00:09:25.206Z,0.60
2023-12-20T00:11:52.310Z,0.70
2023-12-20T00:14:19.352Z,0.60
2023-12-20T00:16:46.426Z,0.60
2023-12-20T00:19:13.622Z,0.70
2023-12-20T00:21:40.834Z,0.60
2023-12-20T00:24:07.959Z,0.70
2023-12-20T00:26:35.243Z,0.80
2023-12-20T00:29:02.292Z,0.83
2023-12-20T00:31:29.520Z,0.80
2023-12-20T00:33:57.517Z,0.70
2023-12-20T00:36:24.710Z,0.90
2023-12-20T00:38:52.466Z,1.00
2023-12-20T00:41:19.543Z,1.10
2023-12-20T00:43:46.624Z,1.10
2023-12-20T00:46:13.766Z,1.10
2023-12-20T00:48:43.155Z,1.20
2023-12-20T00:51:10.402Z,1.70
2023-12-20T00:53:37.455Z,2.23
2023-12-20T00:56:04.781Z,2.57
2023-12-20T00:58:31.885Z,3.17
2023-12-20T01:00:59.347Z,3.47
2023-12-20T01:03:26.545Z,3.97
2023-12-20T01:05:53.646Z,4.23
2023-12-20T01:08:20.739Z,3.60
2023-12-20T01:10:48.080Z,4.67
2023-12-20T01:13:15.333Z,4.37
2023-12-20T01:15:42.712Z,4.20
2023-12-20T01:18:09.980Z,4.00
2023-12-20T01:20:37.325Z,3.70
2023-12-20T01:23:04.649Z,4.23
2023-12-20T01:25:31.710Z,4.30
2023-12-20T01:27:58.848Z,2.20
2023-12-20T01:30:26.005Z,5.27
2023-12-20T01:32:53.177Z,5.00
2023-12-20T01:35:20.398Z,2.60
2023-12-20T01:37:47.854Z,2.40
2023-12-20T01:40:15.868Z,3.13
2023-12-20T01:42:43.064Z,2.70
2023-12-20T01:45:10.458Z,3.70
2023-12-20T01:47:37.764Z,4.57
2023-12-20T01:50:05.381Z,4.03
2023-12-20T01:52:34.588Z,2.60
2023-12-20T01:55:04.350Z,4.63
2023-12-20T01:57:31.514Z,2.77
2023-12-20T01:59:58.667Z,3.27
2023-12-20T02:02:25.713Z,2.97
2023-12-20T02:04:53.002Z,2.67
2023-12-20T02:07:20.427Z,3.47
2023-12-20T02:09:47.630Z,3.10
2023-12-20T02:12:14.841Z,2.73
2023-12-20T02:14:41.989Z,3.60
2023-12-20T02:17:09.066Z,3.03
2023-12-20T02:19:36.368Z,2.70
2023-12-20T02:22:07.879Z,3.67
2023-12-20T02:24:34.933Z,2.03
2023-12-20T02:27:02.009Z,2.97
2023-12-20T02:29:29.057Z,3.03
2023-12-20T02:31:56.141Z,2.90
2023-12-20T02:34:23.436Z,3.73
2023-12-20T02:36:50.612Z,2.33
2023-12-20T02:39:17.655Z,3.17
2023-12-20T02:41:44.718Z,4.37
2023-12-20T02:44:11.765Z,6.23
2023-12-20T02:46:38.832Z,3.30
2023-12-20T02:49:06.036Z,3.17
2023-12-20T02:51:33.242Z,3.17
2023-12-20T02:54:00.303Z,4.27
2023-12-20T02:56:27.368Z,2.63
2023-12-20T02:58:54.407Z,1.90
2023-12-20T03:01:21.583Z,2.30
2023-12-20T03:03:48.714Z,2.30
2023-12-20T03:06:19.926Z,2.23
2023-12-20T03:08:47.230Z,2.23
2023-12-20T03:11:14.538Z,3.17
2023-12-20T03:13:41.619Z,2.57
2023-12-20T03:16:16.105Z,2.90
2023-12-20T03:18:43.434Z,3.63
2023-12-20T03:21:10.537Z,3.53
2023-12-20T03:23:37.643Z,3.10
2023-12-20T03:26:04.840Z,2.40
2023-12-20T03:28:31.995Z,3.03
2023-12-20T03:30:59.154Z,3.37
2023-12-20T03:33:26.277Z,2.13
2023-12-20T03:35:53.341Z,2.67
2023-12-20T03:38:20.439Z,2.77
2023-12-20T03:40:47.548Z,3.00
2023-12-20T03:43:14.658Z,2.90
2023-12-20T03:45:41.768Z,3.40
2023-12-20T03:48:08.971Z,4.77
2023-12-20T03:50:36.309Z,4.83
2023-12-20T03:53:04.916Z,2.97
2023-12-20T03:55:31.986Z,4.23
2023-12-20T03:57:59.275Z,5.10
2023-12-20T04:00:26.429Z,5.63
2023-12-20T04:02:53.718Z,4.37
2023-12-20T04:05:21.044Z,4.67
2023-12-20T04:07:48.400Z,3.60
2023-12-20T04:10:15.754Z,2.60
2023-12-20T04:12:42.854Z,3.43
2023-12-20T04:15:11.189Z,4.83
2023-12-20T04:17:38.384Z,2.97
2023-12-20T04:20:06.218Z,4.00
2023-12-20T04:22:33.306Z,5.53
2023-12-20T04:25:00.405Z,4.50
2023-12-20T04:27:27.764Z,5.50
2023-12-20T04:29:54.890Z,4.57
2023-12-20T04:32:21.958Z,4.77
2023-12-20T04:34:49.032Z,2.63
2023-12-20T04:37:16.165Z,4.73
2023-12-20T04:39:43.627Z,4.43
2023-12-20T04:42:10.692Z,2.97
2023-12-20T04:44:37.733Z,4.40
2023-12-20T04:47:04.876Z,4.73
2023-12-20T04:49:32.019Z,7.27
2023-12-20T04:51:59.249Z,3.53
2023-12-20T04:54:26.323Z,3.73
2023-12-20T04:56:53.463Z,5.00
2023-12-20T04:59:20.511Z,5.40
2023-12-20T05:01:47.776Z,5.50
2023-12-20T05:04:14.930Z,6.30
2023-12-20T05:06:42.433Z,5.87
2023-12-20T05:09:10.204Z,3.27
2023-12-20T05:11:37.251Z,4.73
2023-12-20T05:14:04.293Z,3.60
2023-12-20T05:16:31.366Z,4.13
2023-12-20T05:18:59.641Z,4.00
2023-12-20T05:21:26.753Z,3.73
2023-12-20T05:23:53.970Z,4.93
2023-12-20T05:26:21.046Z,3.30
2023-12-20T05:28:48.124Z,4.90
2023-12-20T05:31:15.291Z,4.87
2023-12-20T05:33:42.675Z,4.70
2023-12-20T05:36:12.431Z,4.07
2023-12-20T05:38:39.603Z,5.03
2023-12-20T05:41:06.751Z,4.30
2023-12-20T05:43:33.934Z,3.67
2023-12-20T05:46:01.624Z,4.70
2023-12-20T05:48:28.689Z,4.37
2023-12-20T05:50:55.759Z,4.20
2023-12-20T05:53:22.820Z,4.10
2023-12-20T05:55:49.891Z,5.00
2023-12-20T05:58:17.536Z,4.50
2023-12-20T06:00:44.741Z,5.33
2023-12-20T06:03:11.902Z,5.23
2023-12-20T06:05:38.996Z,6.23
2023-12-20T06:08:06.411Z,3.03
2023-12-20T06:10:33.481Z,2.50
2023-12-20T06:13:01.824Z,4.93
2023-12-20T06:15:28.976Z,4.97
2023-12-20T06:17:56.093Z,4.40
2023-12-20T06:20:23.242Z,4.00
2023-12-20T06:22:50.817Z,4.47
2023-12-20T06:25:18.351Z,5.23
2023-12-20T06:27:45.912Z,3.63
2023-12-20T06:30:13.404Z,4.23
2023-12-20T06:32:40.671Z,5.00
2023-12-20T06:35:08.133Z,3.13
2023-12-20T06:37:35.241Z,5.30
2023-12-20T06:40:02.618Z,5.10
2023-12-20T06:42:31.609Z,5.03
2023-12-20T06:45:00.154Z,3.77
2023-12-20T06:47:27.660Z,5.03
2023-12-20T06:49:54.866Z,7.30
2023-12-20T06:52:22.083Z,7.83
2023-12-20T06:54:49.219Z,6.10
2023-12-20T06:57:16.286Z,4.77
2023-12-20T06:59:43.448Z,5.17
2023-12-20T07:02:14.925Z,3.70
2023-12-20T07:04:44.826Z,5.83
2023-12-20T07:07:12.025Z,5.03
2023-12-20T07:09:40.009Z,4.27
2023-12-20T07:12:07.334Z,3.00
2023-12-20T07:14:34.405Z,5.47
2023-12-20T07:17:01.468Z,7.27
2023-12-20T07:19:28.615Z,5.97
2023-12-20T07:21:55.725Z,5.67
2023-12-20T07:24:22.822Z,6.30
2023-12-20T07:26:49.974Z,6.37
2023-12-20T07:29:17.059Z,6.63
2023-12-20T07:31:44.150Z,5.23
2023-12-20T07:34:11.371Z,6.77
2023-12-20T07:36:38.501Z,6.47
2023-12-20T07:39:05.990Z,5.37
2023-12-20T07:41:33.026Z,4.97
2023-12-20T07:44:00.199Z,6.97
2023-12-20T07:46:27.392Z,4.63
2023-12-20T07:48:54.642Z,5.23
2023-12-20T07:51:22.287Z,6.23
2023-12-20T07:53:49.464Z,5.90
2023-12-20T07:56:17.146Z,6.50
2023-12-20T07:58:51.638Z,2.93
2023-12-20T08:01:20.916Z,4.93
2023-12-20T08:03:48.315Z,5.40
2023-12-20T08:06:15.399Z,5.73
2023-12-20T08:08:44.003Z,5.90
2023-12-20T08:11:12.407Z,6.77
2023-12-20T08:13:39.511Z,6.53
2023-12-20T08:16:06.935Z,4.53
2023-12-20T08:18:34.977Z,6.33
2023-12-20T08:21:02.571Z,7.67
2023-12-20T08:23:31.969Z,5.13
2023-12-20T08:26:00.359Z,5.70
2023-12-20T08:28:28.348Z,8.20
2023-12-20T08:30:56.020Z,5.87
2023-12-20T08:33:23.256Z,5.90
2023-12-20T08:35:50.362Z,5.97
2023-12-20T08:38:18.711Z,7.43
2023-12-20T08:40:46.073Z,4.73
2023-12-20T08:43:13.165Z,5.80
2023-12-20T08:45:40.322Z,6.57
2023-12-20T08:48:09.772Z,7.13
2023-12-20T08:50:37.837Z,5.80
2023-12-20T08:53:05.103Z,7.10
2023-12-20T08:55:32.449Z,6.27
2023-12-20T08:57:59.670Z,7.00
2023-12-20T09:00:28.770Z,7.50
2023-12-20T09:02:56.129Z,7.47
2023-12-20T09:05:23.780Z,7.20
2023-12-20T09:07:51.389Z,6.03
2023-12-20T09:10:23.187Z,6.20
2023-12-20T09:12:51.330Z,5.90
2023-12-20T09:15:18.543Z,5.33
2023-12-20T09:17:46.043Z,4.93
2023-12-20T09:20:14.928Z,5.90
2023-12-20T09:22:43.051Z,5.53
2023-12-20T09:25:11.517Z,4.07
2023-12-20T09:27:38.821Z,5.47
2023-12-20T09:30:07.813Z,6.17
2023-12-20T09:32:35.037Z,4.20
2023-12-20T09:35:02.363Z,4.97
2023-12-20T09:37:29.624Z,3.20
2023-12-20T09:39:56.844Z,6.80
2023-12-20T09:42:26.669Z,5.97
2023-12-20T09:44:53.753Z,6.30
2023-12-20T09:47:22.165Z,8.10
2023-12-20T09:49:49.315Z,4.27
2023-12-20T09:52:16.459Z,6.93
2023-12-20T09:54:43.993Z,4.80
2023-12-20T09:57:11.470Z,5.33
2023-12-20T09:59:38.624Z,4.50
2023-12-20T10:02:05.853Z,4.83
2023-12-20T10:04:33.715Z,5.87
2023-12-20T10:07:06.706Z,5.23
2023-12-20T10:09:34.491Z,5.83
2023-12-20T10:12:01.732Z,6.20
2023-12-20T10:14:28.813Z,4.50
2023-12-20T10:16:56.628Z,3.60
2023-12-20T10:19:23.758Z,3.83
2023-12-20T10:21:50.847Z,4.87
2023-12-20T10:24:21.063Z,4.23
2023-12-20T10:26:48.141Z,4.93
2023-12-20T10:29:15.579Z,3.13
2023-12-20T10:31:43.732Z,3.80
2023-12-20T10:34:11.201Z,5.57
2023-12-20T10:36:38.382Z,4.00
2023-12-20T10:39:06.200Z,4.83
2023-12-20T10:41:33.757Z,3.93
2023-12-20T10:44:01.469Z,5.60
2023-12-20T10:46:32.734Z,2.90
2023-12-20T10:49:00.073Z,5.10
2023-12-20T10:51:27.459Z,4.50
2023-12-20T10:53:54.766Z,4.13
2023-12-20T10:56:24.704Z,3.30
2023-12-20T10:58:51.844Z,3.80
2023-12-20T11:01:19.665Z,3.17
2023-12-20T11:03:49.815Z,3.80
2023-12-20T11:06:21.167Z,4.90
2023-12-20T11:08:57.464Z,3.73
2023-12-20T11:11:28.308Z,3.93
2023-12-20T11:14:02.806Z,4.77
2023-12-20T11:16:38.365Z,5.67
2023-12-20T11:19:11.618Z,4.50
2023-12-20T11:21:38.805Z,4.37
2023-12-20T11:24:05.972Z,3.47
2023-12-20T11:26:33.060Z,4.30
2023-12-20T11:29:22.833Z,4.57
2023-12-20T11:31:49.957Z,4.53
2023-12-20T11:34:17.120Z,4.07
2023-12-20T11:36:44.323Z,3.57
2023-12-20T11:39:12.819Z,3.13
2023-12-20T11:41:41.054Z,4.57
2023-12-20T11:44:08.120Z,4.57
2023-12-20T11:46:35.212Z,3.73
2023-12-20T11:49:02.599Z,4.20
2023-12-20T11:51:29.745Z,3.77
2023-12-20T11:53:57.033Z,3.63
2023-12-20T11:56:24.420Z,4.03
2023-12-20T11:58:51.823Z,3.97
2023-12-20T12:01:19.031Z,2.70
2023-12-20T12:03:46.354Z,3.30
2023-12-20T12:06:14.736Z,5.50
2023-12-20T12:08:41.839Z,3.80
2023-12-20T12:11:08.910Z,4.37
2023-12-20T12:13:36.355Z,5.97
2023-12-20T12:16:04.210Z,2.87
2023-12-20T12:18:31.332Z,2.70
2023-12-20T12:21:02.733Z,4.53
2023-12-20T12:23:29.807Z,4.63
2023-12-20T12:25:56.873Z,2.47
2023-12-20T12:28:24.099Z,4.27
2023-12-20T12:31:00.988Z,5.00
2023-12-20T12:33:29.302Z,4.73
2023-12-20T12:35:56.483Z,5.20
2023-12-20T12:38:23.817Z,5.90
2023-12-20T12:40:51.255Z,4.77
2023-12-20T12:43:18.428Z,3.70
2023-12-20T12:45:45.755Z,3.70
2023-12-20T12:48:12.943Z,3.73
2023-12-20T12:50:40.089Z,5.70
2023-12-20T12:53:07.205Z,3.87
2023-12-20T12:55:34.737Z,3.53
2023-12-20T12:58:01.916Z,2.83
2023-12-20T13:00:29.246Z,1.87
2023-12-20T13:02:56.363Z,3.90
2023-12-20T13:05:23.571Z,4.43
2023-12-20T13:07:51.030Z,2.77
2023-12-20T13:10:18.608Z,1.37
2023-12-20T13:12:46.544Z,2.40
2023-12-20T13:15:13.741Z,2.33
2023-12-20T13:17:41.238Z,1.63
2023-12-20T13:20:08.887Z,1.70
2023-12-20T13:22:36.992Z,1.37
2023-12-20T13:25:04.370Z,0.87
2023-12-20T13:27:31.557Z,1.00
2023-12-20T13:29:59.692Z,1.80
2023-12-20T13:32:26.929Z,1.30
2023-12-20T13:34:54.213Z,1.60
2023-12-20T13:37:22.016Z,2.57
2023-12-20T13:39:49.213Z,2.30
2023-12-20T13:42:16.331Z,1.63
2023-12-20T13:44:43.413Z,1.40
2023-12-20T13:47:10.567Z,1.73
2023-12-20T13:49:37.713Z,2.57
2023-12-20T13:52:05.450Z,1.73
2023-12-20T13:54:32.658Z,1.43
2023-12-20T13:57:08.728Z,2.40
2023-12-20T13:59:40.030Z,2.63
2023-12-20T14:02:07.230Z,2.13
2023-12-20T14:04:41.791Z,3.10
2023-12-20T14:07:11.678Z,2.27
2023-12-20T14:09:39.731Z,3.50
2023-12-20T14:12:06.952Z,3.07
2023-12-20T14:14:34.019Z,3.57
2023-12-20T14:17:01.115Z,2.40
2023-12-20T14:19:28.468Z,2.50
2023-12-20T14:21:55.605Z,3.37
2023-12-20T14:24:22.701Z,2.77
2023-12-20T14:26:49.751Z,1.77
2023-12-20T14:29:16.837Z,3.53
2023-12-20T14:31:44.020Z,2.87
2023-12-20T14:34:11.247Z,2.00
2023-12-20T14:36:38.671Z,3.10
2023-12-20T14:39:05.804Z,2.50
2023-12-20T14:41:33.218Z,2.00
2023-12-20T14:44:05.808Z,3.77
2023-12-20T14:46:32.962Z,3.53
2023-12-20T14:49:02.418Z,3.33
2023-12-20T14:51:29.553Z,2.47
2023-12-20T14:53:56.658Z,2.43
2023-12-20T14:56:25.076Z,3.10
2023-12-20T14:58:52.126Z,2.17
2023-12-20T15:01:22.605Z,2.17
2023-12-20T15:03:49.762Z,3.40
2023-12-20T15:06:16.858Z,4.50
2023-12-20T15:08:43.967Z,1.77
2023-12-20T15:11:11.021Z,1.87
2023-12-20T15:13:38.095Z,2.93
2023-12-20T15:16:05.379Z,1.23
2023-12-20T15:18:33.128Z,1.57
2023-12-20T15:21:00.770Z,2.10
2023-12-20T15:23:29.826Z,1.90
2023-12-20T15:25:56.906Z,3.07
2023-12-20T15:28:24.000Z,1.20
2023-12-20T15:30:51.198Z,3.03
2023-12-20T15:33:18.372Z,1.67
2023-12-20T15:35:45.488Z,2.57
2023-12-20T15:38:12.866Z,2.10
2023-12-20T15:40:40.308Z,2.57
2023-12-20T15:43:07.590Z,1.93
2023-12-20T15:45:34.765Z,2.10
2023-12-20T15:48:01.914Z,2.90
2023-12-20T15:50:29.088Z,2.93
2023-12-20T15:52:57.009Z,2.87
2023-12-20T15:55:24.125Z,2.73
2023-12-20T15:57:54.895Z,3.37
2023-12-20T16:00:22.719Z,4.70
2023-12-20T16:02:50.816Z,2.43
2023-12-20T16:05:18.129Z,2.73
2023-12-20T16:07:45.802Z,2.83
2023-12-20T16:10:13.473Z,3.87
2023-12-20T16:12:40.907Z,1.93
2023-12-20T16:15:09.302Z,2.80
2023-12-20T16:17:37.388Z,1.93
2023-12-20T16:20:04.738Z,4.33
2023-12-20T16:22:31.858Z,3.90
2023-12-20T16:24:59.303Z,3.90
2023-12-20T16:27:26.387Z,2.83
2023-12-20T16:29:53.469Z,4.03
2023-12-20T16:32:20.534Z,4.73
2023-12-20T16:34:47.904Z,4.73
2023-12-20T16:37:15.003Z,2.93
2023-12-20T16:39:42.073Z,2.53
2023-12-20T16:42:09.138Z,3.83
2023-12-20T16:44:36.205Z,3.83
2023-12-20T16:47:03.289Z,4.33
2023-12-20T16:49:30.616Z,5.93
2023-12-20T16:51:57.783Z,4.57
2023-12-20T16:54:24.901Z,3.30
2023-12-20T16:56:52.026Z,5.03
2023-12-20T16:59:19.106Z,4.97
2023-12-20T17:01:46.700Z,6.83
2023-12-20T17:04:13.990Z,3.07
2023-12-20T17:06:41.305Z,3.83
2023-12-20T17:09:12.029Z,2.63
2023-12-20T17:11:39.366Z,2.90
2023-12-20T17:14:06.495Z,2.57
2023-12-20T17:16:33.636Z,5.20
2023-12-20T17:19:02.102Z,2.50
2023-12-20T17:21:29.184Z,2.87
2023-12-20T17:23:56.231Z,4.20
2023-12-20T17:26:23.281Z,2.93
2023-12-20T17:28:50.353Z,3.33
2023-12-20T17:31:18.065Z,3.47
2023-12-20T17:33:45.282Z,1.90
2023-12-20T17:36:15.386Z,3.23
2023-12-20T17:38:42.442Z,3.43
2023-12-20T17:41:09.565Z,2.13
2023-12-20T17:43:36.640Z,2.73
2023-12-20T17:46:03.805Z,2.83
2023-12-20T17:48:30.897Z,3.50
2023-12-20T17:50:58.416Z,2.73
2023-12-20T17:53:25.512Z,2.13
2023-12-20T17:55:52.571Z,2.10
2023-12-20T17:58:21.372Z,1.77
2023-12-20T18:00:49.037Z,3.60
2023-12-20T18:03:16.250Z,3.20
2023-12-20T18:05:43.369Z,1.83
2023-12-20T18:08:10.495Z,4.17
2023-12-20T18:10:37.681Z,3.23
2023-12-20T18:13:04.933Z,2.70
2023-12-20T18:15:31.994Z,2.13
2023-12-20T18:17:59.134Z,3.23
2023-12-20T18:20:26.322Z,3.03
2023-12-20T18:22:53.512Z,3.67
2023-12-20T18:25:20.692Z,2.53
2023-12-20T18:27:48.097Z,3.90
2023-12-20T18:30:17.231Z,2.23
2023-12-20T18:32:45.244Z,3.33
2023-12-20T18:35:12.717Z,4.20
2023-12-20T18:37:40.301Z,3.43
2023-12-20T18:40:08.337Z,2.97
2023-12-20T18:42:35.731Z,2.70
2023-12-20T18:45:04.692Z,3.37
2023-12-20T18:47:32.407Z,3.37
2023-12-20T18:50:03.366Z,3.43
2023-12-20T18:52:30.814Z,2.50
2023-12-20T18:54:58.060Z,3.50
2023-12-20T18:57:25.191Z,3.30
2023-12-20T18:59:52.283Z,2.57
2023-12-20T19:02:19.435Z,2.87
2023-12-20T19:04:46.700Z,3.07
2023-12-20T19:07:13.921Z,3.87
2023-12-20T19:09:41.064Z,3.70
2023-12-20T19:12:08.243Z,2.50
2023-12-20T19:14:35.385Z,3.57
2023-12-20T19:17:03.625Z,2.60
2023-12-20T19:19:30.760Z,2.47
2023-12-20T19:21:58.065Z,2.87
2023-12-20T19:24:25.152Z,3.97
2023-12-20T19:26:52.211Z,1.80
2023-12-20T19:29:19.264Z,3.53
2023-12-20T19:31:48.757Z,3.43
2023-12-20T19:34:16.003Z,2.73
2023-12-20T19:36:43.203Z,2.00
2023-12-20T19:39:10.258Z,4.07
2023-12-20T19:41:37.421Z,2.17
2023-12-20T19:44:04.571Z,4.23
2023-12-20T19:46:31.745Z,2.80
2023-12-20T19:48:59.086Z,1.90
2023-12-20T19:51:26.540Z,2.57
2023-12-20T19:53:53.719Z,3.37
2023-12-20T19:56:20.913Z,1.60
2023-12-20T19:58:48.016Z,1.57
2023-12-20T20:01:15.344Z,2.47
2023-12-20T20:03:42.482Z,1.97
2023-12-20T20:06:09.630Z,1.90
2023-12-20T20:08:36.805Z,2.40
2023-12-20T20:11:03.866Z,3.13
2023-12-20T20:13:31.014Z,4.17
2023-12-20T20:15:58.095Z,2.90
2023-12-20T20:18:25.279Z,2.40
2023-12-20T20:20:52.497Z,3.63
2023-12-20T20:23:19.604Z,2.57
2023-12-20T20:25:47.275Z,2.63
2023-12-20T20:28:15.451Z,3.63
2023-12-20T20:30:42.553Z,2.27
2023-12-20T20:33:09.772Z,3.33
2023-12-20T20:35:36.892Z,1.70
2023-12-20T20:38:04.624Z,1.87
2023-12-20T20:40:31.718Z,2.23
2023-12-20T20:42:58.864Z,2.27
2023-12-20T20:45:27.069Z,1.20
2023-12-20T20:48:03.349Z,1.63
2023-12-20T20:50:38.714Z,1.57
2023-12-20T20:53:05.954Z,1.73
2023-12-20T20:55:33.140Z,2.90
2023-12-20T20:58:00.319Z,1.13
2023-12-20T21:00:27.456Z,2.00
2023-12-20T21:02:54.502Z,1.80
2023-12-20T21:05:21.605Z,2.53
2023-12-20T21:07:48.972Z,2.17
2023-12-20T21:10:16.355Z,1.20
2023-12-20T21:12:43.535Z,1.30
2023-12-20T21:15:14.906Z,1.70
2023-12-20T21:17:45.388Z,1.63
2023-12-20T21:20:15.772Z,1.30
2023-12-20T21:22:43.018Z,1.30
2023-12-20T21:25:10.313Z,1.33
2023-12-20T21:27:39.879Z,0.83
2023-12-20T21:30:08.399Z,0.80
2023-12-20T21:32:35.984Z,0.90
2023-12-20T21:35:03.133Z,0.70
2023-12-20T21:37:30.360Z,1.10
2023-12-20T21:39:57.770Z,0.60
2023-12-20T21:42:24.962Z,0.60
2023-12-20T21:44:52.014Z,0.97
2023-12-20T21:47:19.068Z,0.90
2023-12-20T21:49:46.935Z,0.50
2023-12-20T21:52:15.008Z,0.60
2023-12-20T21:54:42.804Z,0.37
2023-12-20T21:57:10.032Z,1.30
2023-12-20T21:59:37.655Z,0.60
2023-12-20T22:02:04.938Z,0.53
2023-12-20T22:04:32.199Z,1.10
2023-12-20T22:06:59.361Z,1.73
2023-12-20T22:09:26.426Z,1.10
2023-12-20T22:11:53.495Z,0.83
2023-12-20T22:14:20.582Z,0.43
2023-12-20T22:16:47.624Z,0.47
2023-12-20T22:19:14.896Z,0.50
2023-12-20T22:21:42.073Z,0.40
2023-12-20T22:24:09.139Z,0.60
2023-12-20T22:26:36.531Z,0.27
2023-12-20T22:29:03.711Z,0.50
2023-12-20T22:31:30.810Z,0.37
2023-12-20T22:33:58.008Z,0.17
2023-12-20T22:36:25.168Z,0.33
2023-12-20T22:38:54.161Z,1.07
2023-12-20T22:41:21.401Z,0.23
2023-12-20T22:43:48.490Z,0.30
2023-12-20T22:46:17.747Z,0.20
2023-12-20T22:48:45.674Z,0.30
2023-12-20T22:51:12.835Z,0.20
2023-12-20T22:53:39.920Z,0.10
2023-12-20T22:56:07.053Z,0.10
2023-12-20T22:58:34.171Z,0.20
2023-12-20T23:01:01.509Z,0.33
2023-12-20T23:03:28.658Z,0.30
2023-12-20T23:05:55.823Z,0.10
2023-12-20T23:08:22.995Z,0.20
2023-12-20T23:10:50.077Z,0.17
2023-12-20T23:13:17.706Z,0.10
2023-12-20T23:15:44.815Z,0.10
2023-12-20T23:18:11.940Z,0.20
2023-12-20T23:20:39.083Z,0.10
2023-12-20T23:23:07.350Z,0.10
2023-12-20T23:25:34.511Z,0.20
2023-12-20T23:28:01.732Z,0.20
2023-12-20T23:30:28.862Z,0.10
2023-12-20T23:32:56.839Z,0.10
2023-12-20T23:35:24.074Z,0.10
2023-12-20T23:37:51.367Z,0.10
2023-12-20T23:40:18.760Z,0.10
2023-12-20T23:42:45.894Z,0.20
2023-12-20T23:45:12.980Z,0.10
2023-12-20T23:47:40.124Z,0.57
2023-12-20T23:50:07.732Z,0.10
2023-12-20T23:52:35.110Z,0.10
2023-12-20T23:55:02.504Z,0.37
2023-12-20T23:57:29.584Z,0.20
2023-12-20T23:59:56.626Z,0.17
